createdAt,value
2017-12-12T00:01:48.351Z,1.53
2017-12-12T00:04:14.572Z,1.20
2017-12-12T00:06:41.240Z,3.93
2017-12-12T00:09:08.436Z,1.83
2017-12-12T00:11:34.661Z,2.60
2017-12-12T00:14:00.884Z,5.67
2017-12-12T00:16:27.104Z,1.30
2017-12-12T00:18:53.576Z,2.60
2017-12-12T00:21:19.780Z,1.83
2017-12-12T00:23:45.971Z,1.67
2017-12-12T00:26:13.267Z,2.30
2017-12-12T00:28:39.448Z,1.70
2017-12-12T00:31:05.707Z,1.60
2017-12-12T00:33:31.912Z,1.93
2017-12-12T00:35:58.340Z,2.60
2017-12-12T00:38:24.568Z,2.53
2017-12-12T00:40:51.520Z,4.03
2017-12-12T00:43:17.708Z,4.27
2017-12-12T00:45:43.946Z,2.77
2017-12-12T00:48:10.136Z,2.93
2017-12-12T00:50:36.346Z,2.33
2017-12-12T00:53:03.295Z,2.83
2017-12-12T00:55:30.496Z,3.20
2017-12-12T00:57:56.680Z,1.17
2017-12-12T01:00:23.611Z,2.80
2017-12-12T01:02:50.596Z,1.70
2017-12-12T01:05:16.779Z,1.50
2017-12-12T01:07:42.988Z,2.10
2017-12-12T01:10:09.180Z,2.00
2017-12-12T01:12:35.408Z,1.43
2017-12-12T01:15:01.588Z,4.83
2017-12-12T01:17:27.828Z,3.87
2017-12-12T01:19:54.764Z,4.10
2017-12-12T01:22:20.976Z,5.37
2017-12-12T01:24:47.184Z,2.40
2017-12-12T01:27:13.412Z,2.47
2017-12-12T01:29:39.603Z,1.77
2017-12-12T01:32:05.800Z,3.53
2017-12-12T01:34:32.025Z,2.30
2017-12-12T01:36:58.227Z,1.60
2017-12-12T01:39:24.456Z,2.30
2017-12-12T01:41:50.656Z,2.43
2017-12-12T01:44:17.123Z,2.40
2017-12-12T01:46:43.327Z,9.23
2017-12-12T01:49:09.508Z,3.43
2017-12-12T01:51:35.780Z,2.93
2017-12-12T01:54:01.990Z,2.73
2017-12-12T01:56:28.955Z,2.60
2017-12-12T01:58:55.163Z,1.87
2017-12-12T02:01:21.440Z,7.03
2017-12-12T02:03:50.584Z,1.93
2017-12-12T02:06:17.568Z,2.33
2017-12-12T02:08:43.776Z,2.83
2017-12-12T02:11:11.492Z,2.10
2017-12-12T02:13:38.334Z,1.83
2017-12-12T02:16:05.997Z,1.53
2017-12-12T02:18:32.840Z,1.23
2017-12-12T02:20:59.872Z,1.60
2017-12-12T02:23:26.087Z,1.20
2017-12-12T02:25:52.657Z,1.67
2017-12-12T02:28:18.871Z,1.30
2017-12-12T02:30:45.913Z,2.10
2017-12-12T02:33:12.167Z,2.30
2017-12-12T02:35:38.375Z,1.00
2017-12-12T02:38:04.623Z,0.97
2017-12-12T02:40:30.829Z,1.10
2017-12-12T02:42:57.481Z,1.53
2017-12-12T02:45:23.727Z,1.00
2017-12-12T02:47:49.948Z,1.10
2017-12-12T02:50:16.192Z,1.20
2017-12-12T02:52:42.412Z,0.90
2017-12-12T02:55:09.417Z,1.00
2017-12-12T02:57:35.640Z,1.53
2017-12-12T03:00:01.888Z,2.40
2017-12-12T03:02:28.148Z,0.80
2017-12-12T03:04:54.383Z,0.90
2017-12-12T03:07:20.608Z,2.17
2017-12-12T03:09:46.848Z,0.97
2017-12-12T03:12:13.080Z,1.37
2017-12-12T03:14:39.327Z,0.70
2017-12-12T03:17:06.329Z,0.70
2017-12-12T03:19:32.528Z,0.80
2017-12-12T03:21:58.728Z,1.20
2017-12-12T03:24:25.707Z,1.33
2017-12-12T03:26:51.944Z,3.30
2017-12-12T03:29:18.171Z,1.60
2017-12-12T03:31:44.399Z,0.70
2017-12-12T03:34:10.648Z,0.70
2017-12-12T03:36:36.877Z,0.60
2017-12-12T03:39:03.214Z,1.53
2017-12-12T03:41:29.408Z,1.73
2017-12-12T03:43:55.663Z,0.97
2017-12-12T03:46:22.183Z,1.80
2017-12-12T03:48:48.403Z,0.80
2017-12-12T03:51:14.651Z,1.13
2017-12-12T03:53:41.690Z,1.10
2017-12-12T03:56:07.908Z,1.37
2017-12-12T03:58:34.108Z,0.87
2017-12-12T04:01:01.084Z,0.83
2017-12-12T04:03:27.319Z,0.80
2017-12-12T04:05:53.577Z,0.77
2017-12-12T04:08:19.775Z,0.60
2017-12-12T04:10:46.015Z,0.80
2017-12-12T04:13:12.216Z,0.63
2017-12-12T04:15:38.487Z,0.87
2017-12-12T04:18:04.704Z,0.60
2017-12-12T04:20:30.900Z,1.13
2017-12-12T04:22:57.924Z,0.80
2017-12-12T04:25:24.872Z,0.70
2017-12-12T04:27:51.123Z,0.70
2017-12-12T04:30:18.051Z,0.80
2017-12-12T04:32:45.016Z,0.80
2017-12-12T04:35:12.013Z,0.80
2017-12-12T04:37:38.261Z,1.10
2017-12-12T04:40:04.574Z,1.03
2017-12-12T04:42:31.031Z,1.30
2017-12-12T04:44:57.232Z,1.50
2017-12-12T04:47:23.847Z,1.30
2017-12-12T04:49:50.136Z,0.63
2017-12-12T04:52:17.087Z,1.10
2017-12-12T04:54:44.040Z,1.67
2017-12-12T04:57:12.796Z,1.73
2017-12-12T04:59:39.024Z,1.00
2017-12-12T05:02:05.259Z,0.80
2017-12-12T05:04:31.484Z,0.80
2017-12-12T05:06:57.907Z,1.00
2017-12-12T05:09:24.159Z,2.03
2017-12-12T05:11:51.100Z,0.90
2017-12-12T05:14:17.334Z,0.80
2017-12-12T05:16:43.642Z,0.70
2017-12-12T05:19:09.888Z,0.87
2017-12-12T05:21:36.083Z,0.73
2017-12-12T05:24:02.280Z,0.80
2017-12-12T05:26:28.499Z,3.43
2017-12-12T05:28:55.441Z,0.73
2017-12-12T05:31:22.422Z,1.37
2017-12-12T05:33:48.664Z,0.67
2017-12-12T05:36:14.909Z,0.70
2017-12-12T05:38:41.168Z,0.80
2017-12-12T05:41:07.391Z,0.67
2017-12-12T05:43:33.600Z,1.93
2017-12-12T05:45:59.864Z,2.20
2017-12-12T05:48:26.814Z,0.80
2017-12-12T05:50:53.780Z,0.60
2017-12-12T05:53:20.004Z,0.90
2017-12-12T05:55:46.242Z,1.10
2017-12-12T05:58:12.452Z,0.83
2017-12-12T06:00:46.639Z,0.80
2017-12-12T06:03:13.643Z,0.80
2017-12-12T06:05:39.848Z,0.70
2017-12-12T06:08:06.143Z,0.87
2017-12-12T06:10:32.352Z,2.43
2017-12-12T06:12:58.580Z,0.90
2017-12-12T06:15:24.801Z,0.73
2017-12-12T06:17:51.051Z,0.90
2017-12-12T06:20:17.269Z,1.17
2017-12-12T06:22:43.544Z,1.07
2017-12-12T06:25:11.380Z,1.67
2017-12-12T06:27:37.587Z,0.77
2017-12-12T06:30:03.840Z,1.00
2017-12-12T06:32:30.044Z,1.40
2017-12-12T06:34:56.272Z,1.33
2017-12-12T06:37:22.524Z,1.50
2017-12-12T06:39:48.744Z,1.23
2017-12-12T06:42:15.000Z,1.13
2017-12-12T06:44:41.221Z,1.87
2017-12-12T06:47:08.943Z,2.23
2017-12-12T06:49:35.247Z,2.03
2017-12-12T06:52:02.184Z,1.43
2017-12-12T06:54:29.176Z,2.30
2017-12-12T06:56:55.384Z,1.53
2017-12-12T06:59:21.934Z,1.20
2017-12-12T07:01:48.140Z,1.50
2017-12-12T07:04:14.376Z,2.97
2017-12-12T07:06:40.623Z,1.43
2017-12-12T07:09:06.832Z,1.90
2017-12-12T07:11:33.083Z,2.67
2017-12-12T07:13:59.280Z,2.00
2017-12-12T07:16:26.312Z,2.10
2017-12-12T07:18:53.260Z,2.00
2017-12-12T07:21:20.254Z,5.17
2017-12-12T07:23:46.496Z,4.50
2017-12-12T07:26:12.692Z,2.03
2017-12-12T07:28:38.923Z,4.30
2017-12-12T07:31:05.125Z,4.97
2017-12-12T07:33:32.236Z,1.80
2017-12-12T07:35:58.445Z,2.83
2017-12-12T07:38:24.656Z,3.30
2017-12-12T07:40:50.835Z,2.60
2017-12-12T07:43:17.046Z,2.33
2017-12-12T07:45:43.242Z,1.97
2017-12-12T07:48:09.467Z,2.43
2017-12-12T07:50:35.660Z,1.57
2017-12-12T07:53:01.892Z,1.73
2017-12-12T07:55:28.096Z,1.53
2017-12-12T07:57:54.296Z,1.20
2017-12-12T08:00:20.535Z,1.00
2017-12-12T08:02:46.732Z,1.50
2017-12-12T08:05:13.000Z,1.27
2017-12-12T08:07:39.228Z,1.20
2017-12-12T08:10:05.436Z,1.37
2017-12-12T08:12:31.615Z,0.73
2017-12-12T08:14:58.103Z,2.93
2017-12-12T08:17:24.293Z,1.73
2017-12-12T08:19:51.275Z,1.13
2017-12-12T08:22:17.452Z,1.20
2017-12-12T08:24:44.403Z,1.17
2017-12-12T08:27:11.361Z,0.73
2017-12-12T08:29:38.447Z,1.37
2017-12-12T08:32:04.630Z,2.00
2017-12-12T08:34:30.822Z,1.10
2017-12-12T08:36:57.087Z,2.93
2017-12-12T08:39:23.268Z,1.93
2017-12-12T08:41:49.486Z,1.73
2017-12-12T08:44:15.679Z,1.67
2017-12-12T08:46:42.628Z,2.57
2017-12-12T08:49:09.555Z,2.70
2017-12-12T08:51:36.504Z,4.00
2017-12-12T08:54:02.748Z,5.23
2017-12-12T08:56:30.347Z,2.60
2017-12-12T08:58:56.532Z,3.93
2017-12-12T09:01:22.728Z,2.10
2017-12-12T09:03:48.932Z,3.77
2017-12-12T09:06:15.140Z,3.30
2017-12-12T09:08:41.352Z,2.40
2017-12-12T09:11:08.280Z,2.57
2017-12-12T09:13:34.520Z,2.30
2017-12-12T09:16:01.444Z,5.37
2017-12-12T09:18:27.760Z,4.50
2017-12-12T09:20:54.302Z,3.17
2017-12-12T09:23:20.496Z,4.97
2017-12-12T09:25:46.699Z,2.67
2017-12-12T09:28:13.676Z,3.53
2017-12-12T09:30:39.864Z,6.50
2017-12-12T09:33:06.043Z,6.37
2017-12-12T09:35:32.255Z,5.70
2017-12-12T09:37:58.431Z,5.30
2017-12-12T09:40:24.933Z,4.40
2017-12-12T09:42:51.135Z,3.23
2017-12-12T09:45:18.084Z,3.40
2017-12-12T09:47:44.271Z,2.43
2017-12-12T09:50:10.480Z,4.50
2017-12-12T09:52:36.659Z,2.07
2017-12-12T09:55:03.862Z,2.97
2017-12-12T09:57:30.044Z,5.00
2017-12-12T09:59:56.235Z,4.00
2017-12-12T10:02:22.467Z,4.57
2017-12-12T10:04:48.656Z,4.73
2017-12-12T10:07:14.912Z,5.03
2017-12-12T10:09:41.100Z,5.60
2017-12-12T10:12:07.324Z,4.37
2017-12-12T10:14:33.775Z,3.70
2017-12-12T10:17:00.036Z,8.93
2017-12-12T10:19:26.987Z,8.40
2017-12-12T10:21:53.168Z,4.30
2017-12-12T10:24:19.383Z,5.37
2017-12-12T10:26:45.607Z,5.63
2017-12-12T10:29:12.560Z,3.70
2017-12-12T10:31:39.500Z,6.50
2017-12-12T10:34:06.453Z,4.70
2017-12-12T10:36:32.696Z,7.70
2017-12-12T10:38:58.936Z,3.43
2017-12-12T10:41:25.194Z,4.50
2017-12-12T10:43:51.432Z,4.20
2017-12-12T10:46:18.183Z,5.73
2017-12-12T10:48:44.631Z,3.13
2017-12-12T10:51:11.923Z,4.90
2017-12-12T10:53:38.152Z,7.97
2017-12-12T10:56:04.536Z,4.53
2017-12-12T10:58:32.212Z,5.33
2017-12-12T11:00:59.164Z,4.17
2017-12-12T11:03:25.384Z,7.50
2017-12-12T11:05:52.680Z,3.30
2017-12-12T11:08:18.860Z,3.80
2017-12-12T11:10:45.111Z,6.73
2017-12-12T11:13:11.304Z,3.40
2017-12-12T11:15:37.658Z,5.50
2017-12-12T11:18:04.584Z,4.73
2017-12-12T11:20:30.761Z,7.40
2017-12-12T11:22:56.972Z,3.97
2017-12-12T11:25:23.910Z,3.00
2017-12-12T11:27:50.907Z,5.80
2017-12-12T11:30:17.084Z,3.53
2017-12-12T11:32:44.032Z,3.20
2017-12-12T11:35:10.960Z,4.80
2017-12-12T11:37:37.168Z,5.00
2017-12-12T11:40:03.478Z,2.10
2017-12-12T11:42:29.709Z,11.13
2017-12-12T11:44:55.921Z,7.33
2017-12-12T11:47:22.104Z,10.73
2017-12-12T11:49:48.344Z,10.37
2017-12-12T11:52:15.292Z,12.43
2017-12-12T11:54:41.615Z,8.60
2017-12-12T11:57:08.117Z,4.63
2017-12-12T11:59:34.300Z,4.83
2017-12-12T12:02:01.239Z,3.80
2017-12-12T12:04:28.187Z,5.53
2017-12-12T12:06:55.164Z,4.27
2017-12-12T12:09:21.380Z,16.43
2017-12-12T12:11:47.576Z,3.77
2017-12-12T12:14:13.780Z,6.00
2017-12-12T12:16:39.981Z,2.40
2017-12-12T12:19:06.191Z,3.10
2017-12-12T12:21:32.740Z,5.43
2017-12-12T12:23:58.948Z,6.77
2017-12-12T12:26:25.131Z,2.50
2017-12-12T12:28:51.372Z,4.73
2017-12-12T12:31:17.568Z,3.97
2017-12-12T12:33:43.819Z,5.13
2017-12-12T12:36:10.016Z,6.20
2017-12-12T12:38:36.220Z,5.33
2017-12-12T12:41:03.171Z,3.63
2017-12-12T12:43:29.727Z,6.00
2017-12-12T12:45:55.928Z,5.13
2017-12-12T12:48:22.888Z,7.90
2017-12-12T12:50:49.095Z,16.83
2017-12-12T12:53:16.018Z,6.50
2017-12-12T12:55:42.301Z,5.90
2017-12-12T12:58:08.487Z,6.67
2017-12-12T13:00:34.815Z,6.33
2017-12-12T13:03:01.748Z,4.43
2017-12-12T13:05:28.891Z,6.40
2017-12-12T13:07:55.076Z,4.43
2017-12-12T13:10:21.629Z,7.43
2017-12-12T13:12:47.814Z,3.20
2017-12-12T13:15:14.768Z,3.27
2017-12-12T13:17:41.952Z,5.33
2017-12-12T13:20:08.160Z,3.03
2017-12-12T13:22:34.349Z,4.93
2017-12-12T13:25:00.563Z,5.90
2017-12-12T13:27:26.756Z,6.17
2017-12-12T13:29:53.816Z,7.37
2017-12-12T13:32:20.079Z,4.77
2017-12-12T13:34:46.260Z,3.90
2017-12-12T13:37:12.473Z,4.37
2017-12-12T13:39:39.400Z,5.23
2017-12-12T13:42:05.604Z,5.37
2017-12-12T13:44:31.785Z,1.57
2017-12-12T13:46:57.984Z,4.20
2017-12-12T13:49:24.164Z,3.97
2017-12-12T13:51:50.782Z,5.20
2017-12-12T13:54:17.724Z,7.00
2017-12-12T13:56:43.975Z,5.80
2017-12-12T13:59:10.184Z,3.57
2017-12-12T14:01:36.356Z,3.60
2017-12-12T14:04:02.572Z,3.00
2017-12-12T14:06:28.771Z,6.93
2017-12-12T14:08:54.991Z,4.73
2017-12-12T14:11:21.917Z,1.87
2017-12-12T14:13:48.153Z,6.50
2017-12-12T14:16:15.112Z,4.90
2017-12-12T14:18:42.037Z,3.20
2017-12-12T14:21:08.991Z,5.47
2017-12-12T14:23:36.762Z,5.03
2017-12-12T14:26:03.712Z,7.37
2017-12-12T14:28:29.893Z,7.10
2017-12-12T14:30:56.160Z,4.77
2017-12-12T14:33:23.355Z,4.03
2017-12-12T14:35:49.532Z,5.00
2017-12-12T14:38:16.475Z,3.23
2017-12-12T14:40:42.696Z,5.57
2017-12-12T14:43:08.905Z,2.57
2017-12-12T14:45:35.091Z,2.23
2017-12-12T14:48:01.324Z,2.97
2017-12-12T14:50:27.508Z,1.70
2017-12-12T14:52:53.687Z,3.40
2017-12-12T14:55:19.896Z,5.40
2017-12-12T14:57:46.152Z,4.33
2017-12-12T15:00:12.352Z,4.70
2017-12-12T15:02:39.275Z,2.73
2017-12-12T15:05:05.515Z,4.77
2017-12-12T15:07:32.464Z,4.87
2017-12-12T15:09:59.424Z,5.50
2017-12-12T15:12:25.632Z,1.73
2017-12-12T15:14:51.811Z,5.63
2017-12-12T15:17:18.084Z,3.33
2017-12-12T15:19:45.015Z,4.70
2017-12-12T15:22:11.220Z,2.60
2017-12-12T15:24:37.401Z,4.17
2017-12-12T15:27:04.348Z,6.13
2017-12-12T15:29:31.263Z,2.60
2017-12-12T15:31:57.469Z,8.77
2017-12-12T15:34:23.992Z,12.40
2017-12-12T15:36:50.191Z,4.00
2017-12-12T15:39:17.127Z,4.53
2017-12-12T15:41:44.241Z,3.97
2017-12-12T15:44:10.431Z,4.23
2017-12-12T15:46:36.623Z,5.40
2017-12-12T15:49:02.881Z,5.53
2017-12-12T15:51:29.075Z,4.70
2017-12-12T15:53:55.623Z,6.10
2017-12-12T15:56:21.836Z,12.63
2017-12-12T15:58:48.016Z,6.77
2017-12-12T16:01:14.225Z,5.10
2017-12-12T16:03:41.144Z,4.07
2017-12-12T16:06:07.348Z,5.73
2017-12-12T16:08:33.551Z,7.67
2017-12-12T16:10:59.783Z,5.40
2017-12-12T16:13:25.972Z,8.37
2017-12-12T16:15:52.916Z,8.53
2017-12-12T16:18:19.836Z,7.30
2017-12-12T16:20:47.532Z,13.10
2017-12-12T16:23:14.451Z,9.57
2017-12-12T16:25:40.656Z,7.70
2017-12-12T16:28:06.832Z,5.87
2017-12-12T16:30:33.776Z,9.37
2017-12-12T16:33:01.071Z,9.47
2017-12-12T16:35:27.280Z,9.63
2017-12-12T16:37:53.474Z,9.67
2017-12-12T16:40:20.168Z,11.40
2017-12-12T16:42:46.356Z,13.93
2017-12-12T16:45:13.293Z,15.30
2017-12-12T16:47:39.519Z,15.63
2017-12-12T16:50:07.179Z,7.00
2017-12-12T16:52:33.384Z,15.80
2017-12-12T16:54:59.567Z,8.50
2017-12-12T16:57:25.832Z,8.73
2017-12-12T16:59:52.014Z,7.73
2017-12-12T17:02:18.936Z,13.53
2017-12-12T17:04:45.192Z,14.30
2017-12-12T17:07:12.373Z,6.80
2017-12-12T17:09:38.580Z,12.10
2017-12-12T17:12:04.763Z,9.83
2017-12-12T17:14:30.972Z,8.10
2017-12-12T17:16:57.152Z,14.50
2017-12-12T17:19:24.100Z,12.60
2017-12-12T17:21:51.028Z,9.13
2017-12-12T17:24:17.232Z,11.83
2017-12-12T17:26:43.407Z,14.03
2017-12-12T17:29:10.360Z,12.07
2017-12-12T17:31:36.545Z,11.90
2017-12-12T17:34:03.043Z,10.93
2017-12-12T17:36:29.252Z,8.90
2017-12-12T17:38:55.431Z,9.67
2017-12-12T17:41:21.653Z,13.03
2017-12-12T17:43:47.844Z,12.70
2017-12-12T17:46:14.052Z,12.40
2017-12-12T17:48:40.980Z,20.43
2017-12-12T17:51:07.189Z,18.23
2017-12-12T17:53:33.376Z,12.60
2017-12-12T17:55:59.584Z,13.30
2017-12-12T17:58:26.503Z,15.20
2017-12-12T18:00:52.911Z,14.77
2017-12-12T18:03:19.091Z,13.97
2017-12-12T18:05:46.012Z,15.13
2017-12-12T18:08:12.269Z,11.97
2017-12-12T18:10:39.188Z,10.53
2017-12-12T18:13:05.398Z,8.90
2017-12-12T18:15:31.584Z,7.50
2017-12-12T18:17:57.784Z,10.13
2017-12-12T18:20:23.960Z,13.43
2017-12-12T18:22:50.188Z,11.43
2017-12-12T18:25:16.368Z,13.60
2017-12-12T18:27:43.393Z,17.10
2017-12-12T18:30:09.547Z,11.73
2017-12-12T18:32:36.476Z,16.30
2017-12-12T18:35:02.680Z,24.27
2017-12-12T18:37:28.862Z,14.07
2017-12-12T18:39:55.820Z,13.70
2017-12-12T18:42:22.001Z,16.93
2017-12-12T18:44:48.204Z,11.37
2017-12-12T18:47:14.383Z,19.17
2017-12-12T18:49:41.332Z,17.93
2017-12-12T18:52:08.252Z,25.13
2017-12-12T18:54:34.451Z,11.93
2017-12-12T18:57:00.624Z,15.53
2017-12-12T18:59:26.799Z,10.03
2017-12-12T19:01:52.999Z,11.87
2017-12-12T19:04:19.919Z,7.90
2017-12-12T19:06:46.876Z,11.30
2017-12-12T19:09:13.825Z,12.73
2017-12-12T19:11:40.792Z,8.97
2017-12-12T19:14:07.012Z,11.67
2017-12-12T19:16:33.203Z,10.67
2017-12-12T19:18:59.412Z,11.50
2017-12-12T19:21:25.608Z,9.20
2017-12-12T19:23:51.812Z,5.60
2017-12-12T19:26:18.752Z,13.37
2017-12-12T19:28:45.083Z,10.50
2017-12-12T19:31:11.263Z,16.17
2017-12-12T19:33:37.473Z,15.27
2017-12-12T19:36:03.652Z,12.27
2017-12-12T19:38:29.911Z,15.70
2017-12-12T19:40:56.901Z,9.33
2017-12-12T19:43:23.112Z,14.07
2017-12-12T19:45:49.295Z,13.27
2017-12-12T19:48:15.784Z,19.90
2017-12-12T19:50:41.983Z,16.70
2017-12-12T19:53:08.916Z,10.10
2017-12-12T19:55:35.868Z,15.07
2017-12-12T19:58:02.839Z,10.67
2017-12-12T20:00:29.056Z,8.33
2017-12-12T20:02:55.275Z,13.40
2017-12-12T20:05:22.222Z,10.37
2017-12-12T20:07:49.199Z,7.00
2017-12-12T20:10:15.428Z,14.43
2017-12-12T20:12:41.623Z,10.93
2017-12-12T20:15:08.647Z,9.20
2017-12-12T20:17:34.899Z,15.80
2017-12-12T20:20:01.883Z,11.13
2017-12-12T20:22:28.140Z,14.60
2017-12-12T20:24:54.331Z,10.70
2017-12-12T20:27:20.603Z,8.40
2017-12-12T20:29:46.830Z,12.03
2017-12-12T20:32:13.308Z,13.87
2017-12-12T20:34:40.284Z,7.43
2017-12-12T20:37:06.528Z,7.27
2017-12-12T20:39:32.737Z,7.30
2017-12-12T20:41:58.991Z,10.30
2017-12-12T20:44:25.171Z,11.23
2017-12-12T20:46:52.144Z,6.87
2017-12-12T20:49:18.362Z,8.83
2017-12-12T20:51:44.548Z,15.37
2017-12-12T20:54:10.788Z,19.63
2017-12-12T20:56:37.779Z,4.67
2017-12-12T20:59:04.002Z,7.40
2017-12-12T21:01:30.236Z,14.80
2017-12-12T21:03:56.415Z,9.63
2017-12-12T21:06:22.632Z,8.30
2017-12-12T21:08:48.867Z,8.73
2017-12-12T21:11:15.185Z,9.47
2017-12-12T21:13:41.372Z,8.23
2017-12-12T21:16:07.622Z,7.20
2017-12-12T21:18:33.846Z,8.50
2017-12-12T21:21:00.527Z,18.13
2017-12-12T21:23:26.707Z,10.17
2017-12-12T21:25:53.025Z,6.57
2017-12-12T21:28:19.207Z,8.47
2017-12-12T21:30:45.462Z,7.60
2017-12-12T21:33:12.379Z,3.50
2017-12-12T21:35:38.838Z,8.70
2017-12-12T21:38:05.820Z,6.40
2017-12-12T21:40:32.008Z,14.40
2017-12-12T21:42:58.956Z,10.70
2017-12-12T21:45:25.923Z,10.60
2017-12-12T21:47:52.182Z,10.70
2017-12-12T21:50:18.359Z,7.23
2017-12-12T21:52:44.580Z,11.70
2017-12-12T21:55:12.332Z,6.80
2017-12-12T21:57:38.553Z,9.20
2017-12-12T22:00:04.825Z,7.07
2017-12-12T22:02:31.035Z,4.60
2017-12-12T22:04:58.724Z,10.53
2017-12-12T22:07:24.900Z,12.37
2017-12-12T22:09:51.159Z,9.13
2017-12-12T22:12:17.356Z,6.10
2017-12-12T22:14:44.094Z,5.77
2017-12-12T22:17:10.288Z,7.20
2017-12-12T22:19:36.736Z,9.40
2017-12-12T22:22:02.967Z,10.60
2017-12-12T22:24:29.143Z,12.87
2017-12-12T22:26:55.444Z,10.00
2017-12-12T22:29:21.666Z,9.40
2017-12-12T22:31:47.914Z,9.93
2017-12-12T22:34:14.091Z,12.53
2017-12-12T22:36:40.329Z,12.13
2017-12-12T22:39:06.504Z,6.77
2017-12-12T22:41:32.703Z,11.67
2017-12-12T22:43:58.884Z,8.80
2017-12-12T22:46:25.859Z,10.90
2017-12-12T22:48:52.039Z,10.77
2017-12-12T22:51:18.224Z,9.17
2017-12-12T22:53:44.460Z,8.97
2017-12-12T22:56:10.640Z,14.07
2017-12-12T22:58:37.592Z,9.20
2017-12-12T23:01:04.552Z,9.33
2017-12-12T23:03:30.763Z,10.73
2017-12-12T23:05:57.683Z,11.60
2017-12-12T23:08:23.903Z,11.00
2017-12-12T23:10:50.114Z,11.70
2017-12-12T23:13:16.555Z,9.73
2017-12-12T23:15:43.036Z,11.13
2017-12-12T23:18:09.956Z,12.80
2017-12-12T23:20:36.164Z,10.20
2017-12-12T23:23:02.343Z,9.73
2017-12-12T23:25:29.295Z,10.47
2017-12-12T23:27:56.228Z,13.60
2017-12-12T23:30:23.223Z,10.80
2017-12-12T23:32:49.415Z,13.53
2017-12-12T23:35:16.344Z,10.40
2017-12-12T23:37:42.548Z,7.37
2017-12-12T23:40:08.728Z,18.47
2017-12-12T23:42:34.931Z,7.27
2017-12-12T23:45:01.851Z,11.87
2017-12-12T23:47:28.054Z,13.63
2017-12-12T23:49:54.235Z,12.57
2017-12-12T23:52:21.180Z,6.47
2017-12-12T23:54:48.099Z,11.27
2017-12-12T23:57:14.321Z,9.23
2017-12-12T23:59:40.508Z,9.13
